Time,TemperatureF,DewpointF,PressureIn,WindDirection,WindDirectionDegrees,WindSpeedMPH,WindSpeedGustMPH,Humidity,HourlyPrecipIn,Conditions,Clouds,dailyrainin,SolarRadiationWatts/m^2,SoftwareType,DateUTC
2013-08-18 00:03:00,-999.0,-99.9,-100.00,SSW,201,2.0,6.0,-999,0.00,,,0.43,0.000000,,2013-08-18 04:03:00,
2013-08-18 00:42:00,62.0,61.0,-100.00,West,279,1.0,4.0,96,0.01,,,0.44,0.000000,,2013-08-18 04:42:00,
2013-08-18 00:53:00,62.0,61.0,-100.00,West,279,1.0,4.0,96,0.01,,,0.44,0.000000,,2013-08-18 04:53:00,
2013-08-18 01:02:00,62.0,61.0,-100.00,West,279,1.0,4.0,96,0.01,,,0.44,0.000000,,2013-08-18 05:02:00,
2013-08-18 01:43:00,61.0,60.0,-100.00,NW,325,1.0,5.0,97,0.00,,,-99.99,0.000000,,2013-08-18 05:43:00,
2013-08-18 01:52:00,61.0,60.0,-100.00,NW,325,1.0,5.0,97,0.00,,,-99.99,0.000000,,2013-08-18 05:52:00,
2013-08-18 02:01:00,61.0,60.0,-100.00,NW,325,1.0,5.0,97,0.00,,,-99.99,0.000000,,2013-08-18 06:01:00,
2013-08-18 02:42:00,61.0,60.0,-100.00,NW,308,0.0,5.0,97,0.00,,,0.44,0.000000,,2013-08-18 06:42:00,
2013-08-18 02:52:00,61.0,60.0,-100.00,NW,308,0.0,5.0,97,0.00,,,0.44,0.000000,,2013-08-18 06:52:00,
2013-08-18 03:01:00,61.0,60.0,-100.00,NW,308,0.0,5.0,97,0.00,,,0.44,0.000000,,2013-08-18 07:01:00,
2013-08-18 03:42:00,61.0,60.0,-100.00,North,354,1.0,3.0,98,0.00,,,0.44,0.000000,,2013-08-18 07:42:00,
2013-08-18 03:52:00,61.0,60.0,-100.00,North,354,1.0,3.0,98,0.00,,,0.44,0.000000,,2013-08-18 07:52:00,
2013-08-18 04:01:00,61.0,60.0,-100.00,North,354,1.0,3.0,98,0.00,,,0.44,0.000000,,2013-08-18 08:01:00,
2013-08-18 04:42:00,62.0,61.0,-100.00,NW,306,1.0,5.0,98,0.00,,,0.44,0.000000,,2013-08-18 08:42:00,
2013-08-18 04:52:00,62.0,61.0,-100.00,NW,306,1.0,5.0,98,0.00,,,0.44,0.000000,,2013-08-18 08:52:00,
2013-08-18 05:01:00,62.0,61.0,-100.00,NW,306,1.0,5.0,98,0.00,,,0.44,0.000000,,2013-08-18 09:01:00,
2013-08-18 05:43:00,62.0,61.0,-100.00,NNW,329,1.0,3.0,98,0.00,,,0.44,0.000000,,2013-08-18 09:43:00,
2013-08-18 05:53:00,62.0,61.0,-100.00,NNW,329,1.0,3.0,98,0.00,,,0.44,0.000000,,2013-08-18 09:53:00,
2013-08-18 06:03:00,62.0,61.0,-100.00,NNW,329,1.0,3.0,98,0.00,,,0.44,0.000000,,2013-08-18 10:03:00,
2013-08-18 06:43:00,62.0,61.0,-100.00,WNW,285,0.0,3.0,98,0.01,,,0.45,0.000000,,2013-08-18 10:43:00,
2013-08-18 06:52:00,62.0,61.0,-100.00,WNW,285,0.0,3.0,98,0.01,,,0.45,0.000000,,2013-08-18 10:52:00,
2013-08-18 07:02:00,62.0,61.0,-100.00,WNW,285,0.0,3.0,98,0.01,,,0.45,0.000000,,2013-08-18 11:02:00,
2013-08-18 07:42:00,62.0,61.0,-100.00,West,281,1.0,4.0,98,0.05,,,0.50,0.000000,,2013-08-18 11:42:00,
2013-08-18 07:52:00,62.0,61.0,-100.00,West,281,1.0,4.0,98,0.05,,,0.50,0.000000,,2013-08-18 11:52:00,
2013-08-18 08:01:00,62.0,61.0,-100.00,West,281,1.0,4.0,98,0.05,,,0.50,0.000000,,2013-08-18 12:01:00,
2013-08-18 08:42:00,63.0,62.0,-100.00,South,188,2.0,6.0,97,0.05,,,0.55,15.000000,,2013-08-18 12:42:00,
2013-08-18 08:52:00,63.0,62.0,-100.00,South,188,2.0,6.0,97,0.05,,,0.55,15.000000,,2013-08-18 12:52:00,
2013-08-18 09:01:00,63.0,62.0,-100.00,South,188,2.0,6.0,97,0.05,,,0.55,15.000000,,2013-08-18 13:01:00,
2013-08-18 09:42:00,63.0,62.0,-100.00,NE,42,2.0,6.0,97,0.09,,,0.64,37.000000,,2013-08-18 13:42:00,
2013-08-18 09:52:00,63.0,62.0,-100.00,NE,42,2.0,6.0,97,0.09,,,0.64,37.000000,,2013-08-18 13:52:00,
2013-08-18 10:02:00,63.0,62.0,-100.00,NE,42,2.0,6.0,97,0.09,,,0.64,37.000000,,2013-08-18 14:02:00,
2013-08-18 10:42:00,64.0,63.0,-100.00,South,182,4.0,7.0,95,0.00,,,0.64,124.000000,,2013-08-18 14:42:00,
2013-08-18 10:53:00,64.0,63.0,-100.00,South,182,4.0,7.0,95,0.00,,,0.64,124.000000,,2013-08-18 14:53:00,
2013-08-18 11:01:00,64.0,63.0,-100.00,South,182,4.0,7.0,95,0.00,,,0.64,124.000000,,2013-08-18 15:01:00,
2013-08-18 11:43:00,67.0,65.0,-100.00,SSE,166,3.0,9.0,92,0.00,,,0.64,239.000000,,2013-08-18 15:43:00,
2013-08-18 11:54:00,67.0,65.0,-100.00,SSE,166,3.0,9.0,92,0.00,,,0.64,239.000000,,2013-08-18 15:54:00,
2013-08-18 12:03:00,67.0,65.0,-100.00,SSE,166,3.0,9.0,92,0.00,,,0.64,239.000000,,2013-08-18 16:03:00,
2013-08-18 12:42:00,68.0,64.0,-100.00,SSE,154,5.0,9.0,88,0.00,,,0.64,341.000000,,2013-08-18 16:42:00,
2013-08-18 12:52:00,68.0,64.0,-100.00,SSE,154,5.0,9.0,88,0.00,,,0.64,341.000000,,2013-08-18 16:52:00,
2013-08-18 13:02:00,68.0,64.0,-100.00,SSE,154,5.0,9.0,88,0.00,,,0.64,341.000000,,2013-08-18 17:02:00,
2013-08-18 13:43:00,70.0,65.0,-100.00,SE,135,5.0,10.0,83,0.00,,,0.64,503.000000,,2013-08-18 17:43:00,
2013-08-18 13:52:00,70.0,65.0,-100.00,SE,135,5.0,10.0,83,0.00,,,0.64,503.000000,,2013-08-18 17:52:00,
2013-08-18 14:02:00,70.0,65.0,-100.00,SE,135,5.0,10.0,83,0.00,,,0.64,503.000000,,2013-08-18 18:02:00,
2013-08-18 14:43:00,71.0,63.0,-100.00,SSE,160,3.0,9.0,76,0.00,,,0.64,401.000000,,2013-08-18 18:43:00,
2013-08-18 14:52:00,71.0,63.0,-100.00,SSE,160,3.0,9.0,76,0.00,,,0.64,401.000000,,2013-08-18 18:52:00,
2013-08-18 15:01:00,71.0,63.0,-100.00,SSE,160,3.0,9.0,76,0.00,,,0.64,401.000000,,2013-08-18 19:01:00,
2013-08-18 15:42:00,69.0,63.0,-100.00,South,177,4.0,8.0,80,0.00,,,0.64,195.000000,,2013-08-18 19:42:00,
2013-08-18 15:52:00,69.0,63.0,-100.00,South,177,4.0,8.0,80,0.00,,,0.64,195.000000,,2013-08-18 19:52:00,
2013-08-18 16:02:00,69.0,63.0,-100.00,South,177,4.0,8.0,80,0.00,,,0.64,195.000000,,2013-08-18 20:02:00,
2013-08-18 16:42:00,67.0,66.0,-100.00,SE,139,4.0,11.0,95,0.04,,,0.68,151.000000,,2013-08-18 20:42:00,
2013-08-18 16:52:00,67.0,66.0,-100.00,SE,139,4.0,11.0,95,0.04,,,0.68,151.000000,,2013-08-18 20:52:00,
2013-08-18 17:01:00,67.0,66.0,-100.00,SE,139,4.0,11.0,95,0.04,,,0.68,151.000000,,2013-08-18 21:01:00,
2013-08-18 17:42:00,68.0,65.0,-100.00,South,189,2.0,10.0,91,0.00,,,0.51,227.000000,,2013-08-18 21:42:00,
2013-08-18 17:53:00,68.0,65.0,-100.00,South,189,2.0,10.0,91,0.00,,,0.51,227.000000,,2013-08-18 21:53:00,
2013-08-18 18:04:00,68.0,65.0,-100.00,South,189,2.0,10.0,91,0.00,,,0.51,227.000000,,2013-08-18 22:04:00,
2013-08-18 18:42:00,70.0,67.0,-100.00,NW,317,1.0,3.0,89,0.00,,,0.34,166.000000,,2013-08-18 22:42:00,
2013-08-18 18:52:00,70.0,67.0,-100.00,NW,317,1.0,3.0,89,0.00,,,0.34,166.000000,,2013-08-18 22:52:00,
2013-08-18 19:02:00,70.0,67.0,-100.00,NW,317,1.0,3.0,89,0.00,,,0.34,166.000000,,2013-08-18 23:02:00,
2013-08-18 19:42:00,69.0,66.0,-100.00,WNW,282,0.0,2.0,91,0.00,,,0.34,96.000000,,2013-08-18 23:42:00,
2013-08-18 19:52:00,69.0,66.0,-100.00,WNW,282,0.0,2.0,91,0.00,,,0.34,96.000000,,2013-08-18 23:52:00,
2013-08-18 20:03:00,69.0,66.0,-100.00,WNW,282,0.0,2.0,91,0.00,,,0.34,96.000000,,2013-08-19 00:03:00,
2013-08-18 20:42:00,67.0,66.0,-100.00,NNE,15,1.0,3.0,96,0.00,,,0.28,24.000000,,2013-08-19 00:42:00,
2013-08-18 20:52:00,67.0,66.0,-100.00,NNE,15,1.0,3.0,96,0.00,,,0.28,24.000000,,2013-08-19 00:52:00,
2013-08-18 21:02:00,67.0,66.0,-100.00,NNE,15,1.0,3.0,96,0.00,,,0.28,24.000000,,2013-08-19 01:02:00,
2013-08-18 21:05:00,66.0,65.0,-100.00,North,356,0.0,3.0,97,0.00,,,0.27,1.000000,,2013-08-19 01:05:00,
2013-08-18 21:42:00,66.0,65.0,-100.00,North,356,0.0,3.0,97,0.00,,,0.27,1.000000,,2013-08-19 01:42:00,
2013-08-18 21:52:00,66.0,65.0,-100.00,North,356,0.0,3.0,97,0.00,,,0.27,1.000000,,2013-08-19 01:52:00,
2013-08-18 22:42:00,65.0,64.0,-100.00,East,81,1.0,3.0,98,0.02,,,0.27,0.000000,,2013-08-19 02:42:00,
2013-08-18 22:52:00,65.0,64.0,-100.00,East,81,1.0,3.0,98,0.02,,,0.27,0.000000,,2013-08-19 02:52:00,
2013-08-18 23:01:00,65.0,64.0,-100.00,East,81,1.0,3.0,98,0.02,,,0.27,0.000000,,2013-08-19 03:01:00,
2013-08-18 23:42:00,65.0,64.0,-100.00,NNW,344,1.0,3.0,98,0.03,,,0.30,0.000000,,2013-08-19 03:42:00,
2013-08-18 23:53:00,65.0,64.0,-100.00,NNW,344,1.0,3.0,98,0.03,,,0.30,0.000000,,2013-08-19 03:53:00,